Time;durP1;ratioP1;P1;durP2;ratioP2;P2;SDS_P1;SDS_P2;PMS_P1;PMS_P2;Temp;Humidity;BMP_temperature;BMP_pressure;BME280_temperature;BME280_humidity;BME280_pressure;Samples;Min_cycle;Max_cycle;Signal;HPM_P1;HPM_P2
2022/08/10 00:00:53;;;;;;;;;;;23.10;75.80;;;;;;5015404;28;20261;-82
2022/08/10 00:03:18;;;;;;;;;;;23.00;75.90;;;;;;5015472;28;20373;-74
2022/08/10 00:05:44;;;;;;;;;;;23.00;76.10;;;;;;5015272;28;19910;-73
2022/08/10 00:08:09;;;;;;;;;;;22.90;76.10;;;;;;5015234;28;19916;-73
2022/08/10 00:10:35;;;;;;;;;;;22.90;76.30;;;;;;5015111;28;19906;-74
2022/08/10 00:13:00;;;;;;;;;;;22.90;76.30;;;;;;5015117;28;19909;-74
2022/08/10 00:15:26;;;;;;;;;;;22.80;76.30;;;;;;5014631;28;19909;-81
2022/08/10 00:17:52;;;;;;;;;;;22.80;76.40;;;;;;5014949;28;19909;-74
2022/08/10 00:20:17;;;;;;;;;;;22.80;76.50;;;;;;5014879;28;19906;-82
2022/08/10 00:22:43;;;;;;;;;;;22.70;76.50;;;;;;5014629;28;19912;-82
2022/08/10 00:25:08;;;;;;;;;;;22.70;76.70;;;;;;5014997;28;19909;-81
2022/08/10 00:27:34;;;;;;;;;;;22.60;76.70;;;;;;5000438;28;20430;-73
2022/08/10 00:30:00;;;;;;;;;;;22.60;76.90;;;;;;4995188;28;19905;-82
2022/08/10 00:32:25;;;;;;;;;;;22.70;76.80;;;;;;4995372;28;19957;-81
2022/08/10 00:34:51;;;;;;;;;;;22.60;76.90;;;;;;4994928;28;19963;-82
2022/08/10 00:37:17;;;;;;;;;;;22.60;77.30;;;;;;4995338;28;20273;-82
2022/08/10 00:39:43;;;;;;;;;;;22.50;77.20;;;;;;5012697;28;19913;-82
2022/08/10 00:42:09;;;;;;;;;;;22.50;77.20;;;;;;5014531;28;19909;-81
2022/08/10 00:44:36;;;;;;;;;;;22.50;77.20;;;;;;5014427;28;19909;-73
2022/08/10 00:47:01;;;;;;;;;;;22.50;77.30;;;;;;5014537;28;19905;-73
2022/08/10 00:49:27;;;;;;;;;;;22.40;77.20;;;;;;5014790;28;20288;-81
2022/08/10 00:51:53;;;;;;;;;;;22.40;77.30;;;;;;5014169;28;20281;-82
2022/08/10 00:54:18;;;;;;;;;;;22.40;77.50;;;;;;5013887;28;19916;-82
2022/08/10 00:56:44;;;;;;;;;;;22.30;77.50;;;;;;5014309;28;19988;-81
2022/08/10 00:59:10;;;;;;;;;;;22.30;77.60;;;;;;5014390;28;19905;-73
2022/08/10 01:01:35;;;;;;;;;;;22.30;77.80;;;;;;5012972;28;19913;-74
2022/08/10 01:04:03;;;;;;;;;;;22.20;77.80;;;;;;5014171;28;19906;-74
2022/08/10 01:06:37;;;;;;;;;;;22.20;77.90;;;;;;5014132;28;19909;-74
2022/08/10 01:09:21;;;;;;;;;;;22.10;78.00;;;;;;5014152;28;19910;-81
2022/08/10 01:11:53;;;;;;;;;;;22.10;78.20;;;;;;5013682;28;20360;-74
2022/08/10 01:14:25;;;;;;;;;;;22.00;78.20;;;;;;5013685;28;19917;-74
2022/08/10 01:16:57;;;;;;;;;;;22.00;78.30;;;;;;5014125;28;20388;-74
2022/08/10 01:19:42;;;;;;;;;;;22.00;78.50;;;;;;5013525;28;19909;-81
2022/08/10 01:22:30;;;;;;;;;;;22.00;78.50;;;;;;5013617;28;19984;-80
2022/08/10 01:25:09;;;;;;;;;;;22.00;78.70;;;;;;5014045;28;20383;-81
2022/08/10 01:27:53;;;;;;;;;;;21.90;78.80;;;;;;5008558;28;20369;-74
2022/08/10 01:30:19;;;;;;;;;;;21.90;79.00;;;;;;4994233;28;19906;-81
2022/08/10 01:32:45;;;;;;;;;;;21.80;79.00;;;;;;4994258;28;20000;-82
2022/08/10 01:35:17;;;;;;;;;;;21.80;79.00;;;;;;4993808;28;19949;-74
2022/08/10 01:37:45;;;;;;;;;;;21.80;79.20;;;;;;4995136;28;20066;-74
2022/08/10 01:40:12;;;;;;;;;;;21.70;79.30;;;;;;5013794;28;20352;-74
2022/08/10 01:42:38;;;;;;;;;;;21.70;79.40;;;;;;5013105;28;19909;-81
2022/08/10 01:45:06;;;;;;;;;;;21.60;79.40;;;;;;5013098;28;19909;-81
2022/08/10 01:50:23;;;;;;;;;;;21.50;79.60;;;;;;5013925;28;19952;-74
2022/08/10 01:52:51;;;;;;;;;;;21.50;79.80;;;;;;5013483;28;19918;-74
2022/08/10 01:55:17;;;;;;;;;;;21.40;79.80;;;;;;5012843;28;19913;-82
2022/08/10 01:57:44;;;;;;;;;;;21.40;79.90;;;;;;5012158;28;19909;-74
2022/08/10 02:00:11;;;;;;;;;;;21.40;80.00;;;;;;5013661;28;19913;-74
2022/08/10 02:02:37;;;;;;;;;;;21.30;80.00;;;;;;5013461;28;19952;-82
2022/08/10 02:05:04;;;;;;;;;;;21.30;80.10;;;;;;5013402;28;20311;-81
2022/08/10 02:07:30;;;;;;;;;;;21.30;80.30;;;;;;5013477;28;19905;-82
2022/08/10 02:10:05;;;;;;;;;;;21.40;80.30;;;;;;5013324;28;20290;-82
2022/08/10 02:12:33;;;;;;;;;;;21.40;80.10;;;;;;5013277;28;20330;-81
2022/08/10 02:15:00;;;;;;;;;;;21.40;80.10;;;;;;5013358;28;19910;-74
2022/08/10 02:17:33;;;;;;;;;;;21.40;80.20;;;;;;5013170;28;19909;-74
2022/08/10 02:20:00;;;;;;;;;;;21.30;80.30;;;;;;5013402;28;19913;-73
2022/08/10 02:22:27;;;;;;;;;;;21.30;80.10;;;;;;5013164;28;19913;-74
2022/08/10 02:24:53;;;;;;;;;;;21.30;80.10;;;;;;5013612;28;20339;-82
2022/08/10 02:27:21;;;;;;;;;;;21.30;80.30;;;;;;5001005;28;19912;-82
2022/08/10 02:29:47;;;;;;;;;;;21.30;80.20;;;;;;4993700;28;19952;-82
2022/08/10 02:32:13;;;;;;;;;;;21.30;80.30;;;;;;4993487;28;19910;-81
2022/08/10 02:34:39;;;;;;;;;;;21.30;80.30;;;;;;4993467;28;19906;-81
2022/08/10 02:37:06;;;;;;;;;;;21.20;80.50;;;;;;4994655;28;20008;-80
2022/08/10 02:39:33;;;;;;;;;;;21.20;80.50;;;;;;5013390;28;19917;-81
2022/08/10 02:42:02;;;;;;;;;;;21.20;80.60;;;;;;5016714;28;19955;-82
2022/08/10 02:44:34;;;;;;;;;;;21.20;80.80;;;;;;5016786;28;19921;-74
2022/08/10 02:47:16;;;;;;;;;;;21.20;80.70;;;;;;5016780;28;20357;-82
2022/08/10 02:49:46;;;;;;;;;;;21.20;80.80;;;;;;5017203;28;19905;-82
2022/08/10 02:52:35;;;;;;;;;;;21.20;80.90;;;;;;5016669;28;19917;-81
2022/08/10 02:55:02;;;;;;;;;;;21.20;81.00;;;;;;5010925;28;20372;-74
2022/08/10 02:57:32;;;;;;;;;;;21.20;81.10;;;;;;5014288;28;20388;-74
2022/08/10 03:00:00;;;;;;;;;;;21.10;81.20;;;;;;5016287;28;19910;-74
2022/08/10 03:02:40;;;;;;;;;;;21.10;81.30;;;;;;5016294;28;20040;-82
2022/08/10 03:05:10;;;;;;;;;;;21.10;81.60;;;;;;5016163;28;20304;-81
2022/08/10 03:07:44;;;;;;;;;;;21.00;81.50;;;;;;5016473;28;19906;-82
2022/08/10 03:10:18;;;;;;;;;;;21.00;81.80;;;;;;5015854;28;19958;-74
2022/08/10 03:12:46;;;;;;;;;;;21.00;81.80;;;;;;5015588;28;19909;-82
2022/08/10 03:15:12;;;;;;;;;;;21.00;82.00;;;;;;5016135;28;19957;-81
2022/08/10 03:17:38;;;;;;;;;;;21.00;81.80;;;;;;5015942;28;20043;-81
2022/08/10 03:20:05;;;;;;;;;;;21.00;81.90;;;;;;5016121;28;19916;-81
2022/08/10 03:22:31;;;;;;;;;;;21.00;82.00;;;;;;5015974;28;19976;-82
2022/08/10 03:24:58;;;;;;;;;;;21.00;82.20;;;;;;5016480;28;20415;-82
2022/08/10 03:27:23;;;;;;;;;;;20.90;82.50;;;;;;5015647;28;19906;-82
2022/08/10 03:29:50;;;;;;;;;;;20.90;82.70;;;;;;5016166;28;20005;-82
2022/08/10 03:32:16;;;;;;;;;;;20.80;82.80;;;;;;5015912;28;19941;-82
2022/08/10 03:34:41;;;;;;;;;;;20.70;83.10;;;;;;5015723;28;19905;-80
2022/08/10 03:37:07;;;;;;;;;;;20.70;83.30;;;;;;5016135;28;20383;-73
2022/08/10 03:39:32;;;;;;;;;;;20.60;83.40;;;;;;5016376;28;19909;-82
2022/08/10 03:42:00;;;;;;;;;;;20.50;83.70;;;;;;5015573;28;20377;-82
2022/08/10 03:44:30;;;;;;;;;;;20.50;83.80;;;;;;5015573;28;20359;-73
2022/08/10 03:46:58;;;;;;;;;;;20.40;84.00;;;;;;5015749;28;20280;-74
2022/08/10 03:49:25;;;;;;;;;;;20.40;84.30;;;;;;5015368;28;19905;-73
2022/08/10 03:51:50;;;;;;;;;;;20.30;84.40;;;;;;5015493;28;19964;-80
2022/08/10 03:54:16;;;;;;;;;;;20.30;84.70;;;;;;5015560;28;19952;-81
2022/08/10 03:56:42;;;;;;;;;;;20.30;84.70;;;;;;5014743;28;19909;-81
2022/08/10 03:59:12;;;;;;;;;;;20.30;84.80;;;;;;5015569;28;19931;-81
2022/08/10 04:01:37;;;;;;;;;;;20.30;84.80;;;;;;5015461;28;19960;-81
2022/08/10 04:04:03;;;;;;;;;;;20.30;84.80;;;;;;5013228;28;19913;-74
2022/08/10 04:06:29;;;;;;;;;;;20.30;84.90;;;;;;4995582;28;19909;-73
2022/08/10 04:08:54;;;;;;;;;;;20.30;85.10;;;;;;4995515;28;20324;-81
2022/08/10 04:11:20;;;;;;;;;;;20.20;85.10;;;;;;4995537;28;19906;-82
2022/08/10 04:13:45;;;;;;;;;;;20.20;85.40;;;;;;4995349;28;19952;-73
2022/08/10 04:16:11;;;;;;;;;;;20.10;85.50;;;;;;4994861;28;19906;-73
2022/08/10 04:18:36;;;;;;;;;;;20.10;85.70;;;;;;4995144;28;19905;-82
2022/08/10 04:21:05;;;;;;;;;;;20.00;86.00;;;;;;4995359;28;19975;-74
2022/08/10 04:23:32;;;;;;;;;;;20.00;86.20;;;;;;4995400;28;19914;-82
2022/08/10 04:25:58;;;;;;;;;;;19.90;86.30;;;;;;4995780;28;19916;-81
2022/08/10 04:28:25;;;;;;;;;;;19.90;86.50;;;;;;4994940;28;19906;-81
2022/08/10 04:30:51;;;;;;;;;;;19.80;86.60;;;;;;4995326;28;19910;-74
2022/08/10 04:33:19;;;;;;;;;;;19.90;86.70;;;;;;4995202;28;19913;-81
2022/08/10 04:35:45;;;;;;;;;;;19.80;86.80;;;;;;4995180;28;19913;-81
2022/08/10 04:38:12;;;;;;;;;;;19.80;86.90;;;;;;4999982;28;19909;-81
2022/08/10 04:40:37;;;;;;;;;;;19.80;87.10;;;;;;5013445;28;19910;-81
2022/08/10 04:43:04;;;;;;;;;;;19.70;87.30;;;;;;5014466;28;19912;-81
2022/08/10 04:45:30;;;;;;;;;;;19.70;87.30;;;;;;5014513;28;19983;-74
2022/08/10 04:47:55;;;;;;;;;;;19.60;87.50;;;;;;5014666;28;19909;-81
2022/08/10 04:50:21;;;;;;;;;;;19.60;87.70;;;;;;5013202;28;19917;-81
2022/08/10 04:52:46;;;;;;;;;;;19.60;87.90;;;;;;5014438;28;19968;-73
2022/08/10 04:55:12;;;;;;;;;;;19.60;88.00;;;;;;5014515;28;20100;-74
2022/08/10 04:57:37;;;;;;;;;;;19.60;88.10;;;;;;5013623;28;20344;-81
2022/08/10 05:00:03;;;;;;;;;;;19.60;88.30;;;;;;5014011;28;19909;-82
2022/08/10 05:02:29;;;;;;;;;;;19.50;88.40;;;;;;5013818;28;20351;-81
2022/08/10 05:04:54;;;;;;;;;;;19.60;88.50;;;;;;5013850;28;20013;-81
2022/08/10 05:07:20;;;;;;;;;;;19.60;88.60;;;;;;5014251;28;20012;-74
2022/08/10 05:09:46;;;;;;;;;;;19.60;88.60;;;;;;5014245;28;19905;-73
2022/08/10 05:12:12;;;;;;;;;;;19.60;88.70;;;;;;5013813;28;19963;-81
2022/08/10 05:14:37;;;;;;;;;;;19.70;88.60;;;;;;5013972;28;19944;-74
2022/08/10 05:17:03;;;;;;;;;;;19.70;88.60;;;;;;5013956;28;20016;-74
2022/08/10 05:19:28;;;;;;;;;;;19.70;88.60;;;;;;5013649;28;20332;-73
2022/08/10 05:21:54;;;;;;;;;;;19.70;88.60;;;;;;5014007;28;20342;-74
2022/08/10 05:24:19;;;;;;;;;;;19.80;88.70;;;;;;5014010;28;19994;-74
2022/08/10 05:26:45;;;;;;;;;;;19.80;88.70;;;;;;5014058;28;19909;-81
2022/08/10 05:29:10;;;;;;;;;;;19.80;88.70;;;;;;5013935;28;20391;-81
2022/08/10 05:31:36;;;;;;;;;;;19.80;88.70;;;;;;5013756;28;19913;-73
2022/08/10 05:34:01;;;;;;;;;;;19.80;88.60;;;;;;5013844;28;19909;-74
2022/08/10 05:36:27;;;;;;;;;;;19.90;88.50;;;;;;5012304;28;19964;-73
2022/08/10 05:38:53;;;;;;;;;;;19.90;88.30;;;;;;5003789;28;19913;-82
2022/08/10 05:41:19;;;;;;;;;;;19.90;88.40;;;;;;4994159;28;19909;-81
2022/08/10 05:43:44;;;;;;;;;;;20.00;88.30;;;;;;4993682;28;20383;-82
2022/08/10 05:46:10;;;;;;;;;;;20.10;88.30;;;;;;5005166;28;19996;-81
2022/08/10 05:48:36;;;;;;;;;;;20.10;88.30;;;;;;5012978;28;19927;-73
2022/08/10 05:51:02;;;;;;;;;;;20.10;88.20;;;;;;5013596;28;19912;-73
2022/08/10 05:53:27;;;;;;;;;;;20.20;88.20;;;;;;5013175;28;19921;-81
2022/08/10 05:55:53;;;;;;;;;;;20.30;88.20;;;;;;5013440;28;20300;-73
2022/08/10 05:58:18;;;;;;;;;;;20.30;88.10;;;;;;5012464;28;19909;-73
2022/08/10 06:00:46;;;;;;;;;;;20.40;87.90;;;;;;5011159;28;20396;-74
2022/08/10 06:03:13;;;;;;;;;;;20.50;87.80;;;;;;5012794;28;20000;-81
2022/08/10 06:05:40;;;;;;;;;;;20.60;87.60;;;;;;5013470;28;19917;-81
2022/08/10 06:08:05;;;;;;;;;;;20.70;87.80;;;;;;5013054;28;19912;-79
2022/08/10 06:10:32;;;;;;;;;;;20.80;87.30;;;;;;5012780;28;19905;-73
2022/08/10 06:15:43;;;;;;;;;;;21.00;86.90;;;;;;5009790;28;20040;-73
2022/08/10 06:18:08;;;;;;;;;;;21.10;86.70;;;;;;5016361;28;20373;-73
2022/08/10 06:20:34;;;;;;;;;;;21.20;86.60;;;;;;5015480;28;19912;-82
2022/08/10 06:23:00;;;;;;;;;;;21.20;86.40;;;;;;5016317;28;19905;-81
2022/08/10 06:25:27;;;;;;;;;;;21.30;86.40;;;;;;5006345;28;19921;-74
2022/08/10 06:27:54;;;;;;;;;;;21.40;86.20;;;;;;5014862;28;20004;-80
2022/08/10 06:30:20;;;;;;;;;;;21.50;86.00;;;;;;5008320;28;20288;-74
2022/08/10 06:32:46;;;;;;;;;;;21.60;85.90;;;;;;5004516;28;19999;-81
2022/08/10 06:35:12;;;;;;;;;;;21.70;85.80;;;;;;5008896;28;19912;-78
2022/08/10 06:37:39;;;;;;;;;;;21.80;85.70;;;;;;5015802;28;20316;-73
2022/08/10 06:40:05;;;;;;;;;;;21.80;85.40;;;;;;5008850;28;20399;-81
2022/08/10 06:42:39;;;;;;;;;;;21.90;85.30;;;;;;5009448;28;19909;-81
2022/08/10 06:45:14;;;;;;;;;;;22.00;85.20;;;;;;5014482;28;19917;-80
2022/08/10 06:47:47;;;;;;;;;;;22.20;84.90;;;;;;5015473;28;19909;-73
2022/08/10 06:50:22;;;;;;;;;;;22.30;84.40;;;;;;5015351;28;19913;-74
2022/08/10 06:52:49;;;;;;;;;;;22.50;83.90;;;;;;5015233;28;19952;-74
2022/08/10 06:55:16;;;;;;;;;;;22.70;83.70;;;;;;5014639;28;19959;-73
2022/08/10 06:57:42;;;;;;;;;;;22.80;83.50;;;;;;5004221;28;19906;-81
2022/08/10 07:00:11;;;;;;;;;;;22.90;83.10;;;;;;5010401;28;19918;-81
2022/08/10 07:02:48;;;;;;;;;;;23.00;82.60;;;;;;5006606;28;19913;-73
2022/08/10 07:05:21;;;;;;;;;;;23.20;82.30;;;;;;5003490;28;19929;-78
2022/08/10 07:07:47;;;;;;;;;;;23.30;82.10;;;;;;5012429;28;19913;-81
2022/08/10 07:10:15;;;;;;;;;;;23.40;82.00;;;;;;5013734;28;19914;-73
2022/08/10 07:12:41;;;;;;;;;;;23.60;81.60;;;;;;5013581;28;19909;-81
2022/08/10 07:15:07;;;;;;;;;;;23.70;81.40;;;;;;5002281;28;20372;-77
2022/08/10 07:17:35;;;;;;;;;;;23.80;81.10;;;;;;5012498;28;19919;-73
2022/08/10 07:20:01;;;;;;;;;;;24.00;81.10;;;;;;5011309;28;19998;-81
2022/08/10 07:22:27;;;;;;;;;;;24.10;80.40;;;;;;5012998;28;19960;-73
2022/08/10 07:24:54;;;;;;;;;;;24.20;80.10;;;;;;5007971;28;20527;-73
2022/08/10 07:27:20;;;;;;;;;;;24.40;80.00;;;;;;5013078;28;19913;-81
2022/08/10 07:29:47;;;;;;;;;;;24.50;79.80;;;;;;5011612;28;19909;-74
2022/08/10 07:32:13;;;;;;;;;;;24.70;79.40;;;;;;5013224;28;19913;-75
2022/08/10 07:34:39;;;;;;;;;;;24.80;78.90;;;;;;5010744;28;20012;-74
2022/08/10 07:37:06;;;;;;;;;;;24.90;78.80;;;;;;5012746;28;20008;-81
2022/08/10 07:39:34;;;;;;;;;;;25.10;78.10;;;;;;5013826;28;19909;-82
2022/08/10 07:42:00;;;;;;;;;;;25.20;78.00;;;;;;5013296;28;19914;-81
2022/08/10 07:44:27;;;;;;;;;;;25.40;78.20;;;;;;5013587;28;19916;-74
2022/08/10 07:46:54;;;;;;;;;;;25.60;77.50;;;;;;5011751;28;19913;-80
2022/08/10 07:49:24;;;;;;;;;;;25.80;77.40;;;;;;5013203;28;19912;-74
2022/08/10 07:51:51;;;;;;;;;;;26.00;76.80;;;;;;5008628;28;19917;-82
2022/08/10 07:54:17;;;;;;;;;;;26.30;76.50;;;;;;5012701;28;19914;-74
2022/08/10 07:56:46;;;;;;;;;;;26.70;75.80;;;;;;5012414;28;20427;-74
2022/08/10 07:59:14;;;;;;;;;;;28.00;74.10;;;;;;5011729;28;19975;-74
2022/08/10 08:01:41;;;;;;;;;;;31.30;69.70;;;;;;5011195;28;20283;-79
2022/08/10 08:04:08;;;;;;;;;;;33.20;66.40;;;;;;5010904;28;19917;-72
2022/08/10 08:06:35;;;;;;;;;;;33.80;64.90;;;;;;5005626;28;19921;-77
2022/08/10 08:09:02;;;;;;;;;;;34.70;64.50;;;;;;5012594;28;19910;-72
2022/08/10 08:11:28;;;;;;;;;;;34.90;63.50;;;;;;5006287;28;20300;-72
2022/08/10 08:13:54;;;;;;;;;;;35.30;63.40;;;;;;5011084;28;19913;-72
2022/08/10 08:16:20;;;;;;;;;;;36.10;62.60;;;;;;5011430;28;20004;-80
2022/08/10 08:18:46;;;;;;;;;;;36.50;62.00;;;;;;5012663;28;19909;-81
2022/08/10 08:21:12;;;;;;;;;;;36.50;62.00;;;;;;5012660;28;19958;-72
2022/08/10 08:23:38;;;;;;;;;;;37.00;61.90;;;;;;5012718;28;19913;-72
2022/08/10 08:26:04;;;;;;;;;;;37.60;62.00;;;;;;5012451;28;19917;-73
2022/08/10 08:28:32;;;;;;;;;;;37.50;60.50;;;;;;5006973;28;19944;-72
2022/08/10 08:30:58;;;;;;;;;;;37.90;60.90;;;;;;5012346;28;19917;-81
2022/08/10 08:33:24;;;;;;;;;;;38.70;60.20;;;;;;5010048;28;19914;-72
2022/08/10 08:35:50;;;;;;;;;;;38.90;60.00;;;;;;5011619;28;19924;-72
2022/08/10 08:38:15;;;;;;;;;;;38.90;60.10;;;;;;5012750;28;19910;-81
2022/08/10 08:40:43;;;;;;;;;;;38.50;59.60;;;;;;5012307;28;19961;-73
2022/08/10 08:43:12;;;;;;;;;;;38.90;59.50;;;;;;5009071;28;19909;-73
2022/08/10 08:45:57;;;;;;;;;;;39.20;59.60;;;;;;5011898;28;19980;-79
2022/08/10 08:48:31;;;;;;;;;;;39.30;59.60;;;;;;5005875;28;19916;-72
2022/08/10 08:51:15;;;;;;;;;;;39.60;59.50;;;;;;5012022;28;19917;-80
2022/08/10 08:53:42;;;;;;;;;;;39.50;59.10;;;;;;5011901;28;19920;-72
2022/08/10 08:56:23;;;;;;;;;;;39.60;59.00;;;;;;5011322;28;19959;-80
2022/08/10 08:58:49;;;;;;;;;;;39.60;59.30;;;;;;5009501;28;19968;-81
2022/08/10 09:01:37;;;;;;;;;;;40.00;59.20;;;;;;5011313;28;19917;-73
2022/08/10 09:04:27;;;;;;;;;;;40.50;58.50;;;;;;5011607;28;19917;-73
2022/08/10 09:07:07;;;;;;;;;;;40.50;58.40;;;;;;5007998;28;19961;-81
2022/08/10 09:09:40;;;;;;;;;;;40.70;58.20;;;;;;5009077;28;19909;-81
2022/08/10 09:12:08;;;;;;;;;;;40.60;58.00;;;;;;4997821;28;19909;-72
2022/08/10 09:14:39;;;;;;;;;;;40.60;58.10;;;;;;5012254;28;19912;-73
2022/08/10 09:17:16;;;;;;;;;;;40.70;57.60;;;;;;5012077;28;19913;-80
2022/08/10 09:20:00;;;;;;;;;;;40.80;57.80;;;;;;5015867;28;19906;-80
2022/08/10 09:22:44;;;;;;;;;;;41.90;57.70;;;;;;5008783;28;19956;-81
2022/08/10 09:25:17;;;;;;;;;;;41.50;57.30;;;;;;5000108;28;19914;-81
2022/08/10 09:27:47;;;;;;;;;;;41.90;57.30;;;;;;5010339;28;19917;-73
2022/08/10 09:30:27;;;;;;;;;;;42.20;57.40;;;;;;5010960;28;20450;-81
2022/08/10 09:32:56;;;;;;;;;;;42.00;57.30;;;;;;5009036;28;19913;-81
2022/08/10 09:35:29;;;;;;;;;;;42.10;57.10;;;;;;5011808;28;19913;-81
2022/08/10 09:38:01;;;;;;;;;;;42.20;57.10;;;;;;5011600;28;19909;-73
2022/08/10 09:40:30;;;;;;;;;;;41.90;57.00;;;;;;5010981;28;19913;-72
2022/08/10 09:43:05;;;;;;;;;;;42.60;57.00;;;;;;5009657;28;19917;-73
2022/08/10 09:45:49;;;;;;;;;;;42.50;56.90;;;;;;5006343;28;20376;-73
2022/08/10 09:48:20;;;;;;;;;;;42.50;56.90;;;;;;5008374;28;19957;-80
2022/08/10 09:50:49;;;;;;;;;;;42.20;57.00;;;;;;5009451;28;19913;-81
2022/08/10 09:53:34;;;;;;;;;;;41.70;56.90;;;;;;5009446;28;19917;-72
2022/08/10 09:56:06;;;;;;;;;;;41.90;57.20;;;;;;4990425;28;20277;-73
2022/08/10 09:58:38;;;;;;;;;;;42.20;56.70;;;;;;5010747;28;19976;-72
2022/08/10 10:01:22;;;;;;;;;;;42.20;56.60;;;;;;5009864;28;19925;-73
2022/08/10 10:04:06;;;;;;;;;;;41.60;56.60;;;;;;5009532;28;19917;-72
2022/08/10 10:06:31;;;;;;;;;;;42.00;56.70;;;;;;5010768;28;19917;-72
2022/08/10 10:09:08;;;;;;;;;;;42.80;56.20;;;;;;5010952;28;19917;-72
2022/08/10 10:11:40;;;;;;;;;;;42.90;56.00;;;;;;5008446;28;19917;-75
2022/08/10 10:14:25;;;;;;;;;;;43.40;55.70;;;;;;5010570;28;20349;-81
2022/08/10 10:17:02;;;;;;;;;;;43.30;55.70;;;;;;5003330;28;20008;-82
2022/08/10 10:19:46;;;;;;;;;;;43.50;55.60;;;;;;5010176;28;19909;-73
2022/08/10 10:22:30;;;;;;;;;;;43.60;55.70;;;;;;5010378;28;19913;-73
2022/08/10 10:25:16;;;;;;;;;;;43.30;55.50;;;;;;5010914;28;19910;-81
2022/08/10 10:28:18;;;;;;;;;;;43.00;54.90;;;;;;5010250;28;20377;-81
2022/08/10 10:31:03;;;;;;;;;;;43.10;55.20;;;;;;4988966;28;19941;-73
2022/08/10 10:33:29;;;;;;;;;;;42.90;55.00;;;;;;5009252;28;20343;-73
2022/08/10 10:35:55;;;;;;;;;;;43.00;55.40;;;;;;5008483;28;19916;-81
2022/08/10 10:38:23;;;;;;;;;;;43.20;55.00;;;;;;5009169;28;19960;-72
2022/08/10 10:40:48;;;;;;;;;;;42.90;55.40;;;;;;5010964;28;19956;-82
2022/08/10 10:43:14;;;;;;;;;;;43.10;54.80;;;;;;5010959;28;20411;-73
2022/08/10 10:45:40;;;;;;;;;;;43.00;55.00;;;;;;5006624;28;19960;-73
2022/08/10 10:48:18;;;;;;;;;;;43.20;54.90;;;;;;5004426;28;19920;-82
2022/08/10 10:50:55;;;;;;;;;;;43.20;54.40;;;;;;5010906;28;20028;-73
2022/08/10 10:53:20;;;;;;;;;;;43.00;55.00;;;;;;5005658;28;20296;-83
2022/08/10 10:56:01;;;;;;;;;;;43.20;53.40;;;;;;5007995;28;19913;-81
2022/08/10 10:58:35;;;;;;;;;;;43.00;53.80;;;;;;5008060;28;19910;-81
2022/08/10 11:01:15;;;;;;;;;;;42.30;54.20;;;;;;5009117;28;19913;-72
2022/08/10 11:03:59;;;;;;;;;;;41.90;54.30;;;;;;5013913;28;19937;-81
2022/08/10 11:06:44;;;;;;;;;;;42.30;54.80;;;;;;5008343;28;20327;-77
2022/08/10 11:09:21;;;;;;;;;;;42.70;54.50;;;;;;5013276;28;20455;-80
2022/08/10 11:11:48;;;;;;;;;;;42.70;54.40;;;;;;5012576;28;19967;-73
2022/08/10 11:14:17;;;;;;;;;;;42.80;54.20;;;;;;5015783;28;19917;-73
2022/08/10 11:16:56;;;;;;;;;;;42.80;54.20;;;;;;5016678;28;19981;-82
2022/08/10 11:19:27;;;;;;;;;;;42.40;53.40;;;;;;5015637;28;19913;-73
2022/08/10 11:22:13;;;;;;;;;;;42.60;53.10;;;;;;5014102;28;20454;-81
2022/08/10 11:24:54;;;;;;;;;;;42.10;52.90;;;;;;5018946;28;20010;-72
2022/08/10 11:27:22;;;;;;;;;;;41.80;52.40;;;;;;5020806;28;20387;-82
2022/08/10 11:29:56;;;;;;;;;;;41.70;53.70;;;;;;4996515;28;19913;-73
2022/08/10 11:32:24;;;;;;;;;;;41.30;53.10;;;;;;5015906;28;20391;-82
2022/08/10 11:35:02;;;;;;;;;;;40.60;53.20;;;;;;5016068;28;19909;-83
2022/08/10 11:37:43;;;;;;;;;;;40.00;53.90;;;;;;5014177;28;19909;-73
2022/08/10 11:40:18;;;;;;;;;;;39.60;55.20;;;;;;5012997;28;19921;-81
2022/08/10 11:42:48;;;;;;;;;;;39.40;55.70;;;;;;5010515;28;19963;-80
2022/08/10 11:45:18;;;;;;;;;;;39.30;54.60;;;;;;5010504;28;19917;-78
2022/08/10 11:47:50;;;;;;;;;;;39.40;54.60;;;;;;5005578;28;19952;-72
2022/08/10 11:50:22;;;;;;;;;;;39.00;53.70;;;;;;5011141;28;19909;-81
2022/08/10 11:52:54;;;;;;;;;;;38.70;54.30;;;;;;5015146;28;19995;-73
2022/08/10 11:55:21;;;;;;;;;;;38.70;54.30;;;;;;5007499;28;20546;-79
2022/08/10 11:57:48;;;;;;;;;;;39.00;54.70;;;;;;5010410;28;19914;-81
2022/08/10 12:00:14;;;;;;;;;;;39.20;54.50;;;;;;5015697;28;20370;-81
2022/08/10 12:02:57;;;;;;;;;;;39.00;54.80;;;;;;5014148;28;19956;-81
2022/08/10 12:05:30;;;;;;;;;;;38.80;54.70;;;;;;5014054;28;19929;-79
2022/08/10 12:07:57;;;;;;;;;;;38.90;54.70;;;;;;5012709;28;19909;-82
2022/08/10 12:10:23;;;;;;;;;;;38.70;54.70;;;;;;5006304;28;19910;-81
2022/08/10 12:13:08;;;;;;;;;;;38.50;55.10;;;;;;5020889;28;19913;-76
2022/08/10 12:15:34;;;;;;;;;;;38.40;54.70;;;;;;5011869;28;19917;-73
2022/08/10 12:18:02;;;;;;;;;;;38.20;54.50;;;;;;5017691;28;19909;-81
2022/08/10 12:20:30;;;;;;;;;;;38.30;55.00;;;;;;5012564;28;19913;-73
2022/08/10 12:23:15;;;;;;;;;;;38.50;54.90;;;;;;5012558;28;19917;-72
2022/08/10 12:25:50;;;;;;;;;;;38.80;54.90;;;;;;5012365;28;20269;-81
2022/08/10 12:28:19;;;;;;;;;;;38.80;55.70;;;;;;5010833;28;20277;-73
2022/08/10 12:30:56;;;;;;;;;;;38.40;54.30;;;;;;5014680;28;19909;-73
2022/08/10 12:33:24;;;;;;;;;;;38.30;54.80;;;;;;5012900;28;19916;-80
2022/08/10 12:35:56;;;;;;;;;;;38.10;54.80;;;;;;5011933;28;19920;-81
2022/08/10 12:38:26;;;;;;;;;;;37.90;55.50;;;;;;5020756;28;19915;-81
2022/08/10 12:40:51;;;;;;;;;;;38.10;55.70;;;;;;5011834;28;21054;-73
2022/08/10 12:43:24;;;;;;;;;;;38.30;55.00;;;;;;5007368;28;19916;-73
2022/08/10 12:46:08;;;;;;;;;;;38.50;54.70;;;;;;5012833;28;19985;-80
2022/08/10 12:48:55;;;;;;;;;;;38.30;55.10;;;;;;5014768;28;20380;-79
2022/08/10 12:51:22;;;;;;;;;;;38.40;55.20;;;;;;5011390;28;19913;-73
2022/08/10 12:54:00;;;;;;;;;;;38.10;54.80;;;;;;5011184;28;20372;-80
2022/08/10 12:56:30;;;;;;;;;;;37.90;55.00;;;;;;5012212;28;20454;-73
2022/08/10 12:58:56;;;;;;;;;;;38.10;55.30;;;;;;5016052;28;19920;-73
2022/08/10 13:01:26;;;;;;;;;;;38.10;54.90;;;;;;5011080;28;19952;-80
2022/08/10 13:03:53;;;;;;;;;;;38.00;55.30;;;;;;5012992;28;19914;-72
2022/08/10 13:06:20;;;;;;;;;;;38.30;55.00;;;;;;5019748;28;20391;-73
2022/08/10 13:11:30;;;;;;;;;;;38.40;54.00;;;;;;5020127;28;19955;-73
2022/08/10 13:14:00;;;;;;;;;;;38.60;54.80;;;;;;5019055;28;19909;-80
2022/08/10 13:16:26;;;;;;;;;;;39.20;54.00;;;;;;5015175;28;20356;-80
2022/08/10 13:18:53;;;;;;;;;;;39.30;53.60;;;;;;4995293;28;19912;-80
2022/08/10 13:21:18;;;;;;;;;;;39.10;53.30;;;;;;5010433;28;19957;-81
2022/08/10 13:24:03;;;;;;;;;;;38.80;53.50;;;;;;5003153;28;19937;-73
2022/08/10 13:26:29;;;;;;;;;;;38.50;54.30;;;;;;5014815;28;19921;-81
2022/08/10 13:28:58;;;;;;;;;;;38.10;54.00;;;;;;5020375;28;20387;-76
2022/08/10 13:31:27;;;;;;;;;;;38.00;54.40;;;;;;5014415;28;19967;-79
2022/08/10 13:33:57;;;;;;;;;;;37.80;55.20;;;;;;5009298;28;19920;-80
2022/08/10 13:36:27;;;;;;;;;;;37.90;53.60;;;;;;5011294;28;19917;-72
2022/08/10 13:38:56;;;;;;;;;;;37.90;54.50;;;;;;5009351;28;20000;-73
2022/08/10 13:41:26;;;;;;;;;;;38.10;54.80;;;;;;5015225;28;19929;-80
2022/08/10 13:43:54;;;;;;;;;;;38.40;54.00;;;;;;5012977;28;19968;-73
2022/08/10 13:46:22;;;;;;;;;;;38.40;54.50;;;;;;5007232;28;20328;-72
2022/08/10 13:48:48;;;;;;;;;;;38.60;54.10;;;;;;5003413;28;20364;-72
2022/08/10 13:51:15;;;;;;;;;;;38.30;53.00;;;;;;5011798;28;20296;-72
2022/08/10 13:53:41;;;;;;;;;;;38.20;53.30;;;;;;5007077;28;20023;-81
2022/08/10 13:56:08;;;;;;;;;;;38.50;54.00;;;;;;5018356;28;19909;-72
2022/08/10 13:58:35;;;;;;;;;;;38.30;53.50;;;;;;5009847;28;20376;-72
2022/08/10 14:01:11;;;;;;;;;;;38.40;53.50;;;;;;5014469;28;19917;-73
2022/08/10 14:03:38;;;;;;;;;;;38.80;54.10;;;;;;5008145;28;20288;-80
2022/08/10 14:06:05;;;;;;;;;;;39.00;54.10;;;;;;5004100;28;20440;-79
2022/08/10 14:08:31;;;;;;;;;;;39.00;53.90;;;;;;5015304;28;19988;-72
2022/08/10 14:11:08;;;;;;;;;;;39.30;53.70;;;;;;5011675;28;19906;-73
2022/08/10 14:13:35;;;;;;;;;;;39.30;53.50;;;;;;5012138;28;19914;-73
2022/08/10 14:16:04;;;;;;;;;;;39.50;52.80;;;;;;5011235;28;19917;-80
2022/08/10 14:18:32;;;;;;;;;;;39.40;52.60;;;;;;5010048;28;19921;-80
2022/08/10 14:20:58;;;;;;;;;;;39.30;53.40;;;;;;5010453;28;19936;-81
2022/08/10 14:23:24;;;;;;;;;;;39.30;53.50;;;;;;5004541;28;19914;-80
2022/08/10 14:25:51;;;;;;;;;;;39.20;53.00;;;;;;5012473;28;19964;-81
2022/08/10 14:28:18;;;;;;;;;;;39.30;52.60;;;;;;5015342;28;19913;-73
2022/08/10 14:30:45;;;;;;;;;;;39.90;52.80;;;;;;5009048;28;20411;-81
2022/08/10 14:33:15;;;;;;;;;;;41.30;52.60;;;;;;5015098;28;20022;-81
2022/08/10 14:35:43;;;;;;;;;;;41.40;51.80;;;;;;5018529;28;19913;-81
2022/08/10 14:38:11;;;;;;;;;;;42.10;51.60;;;;;;5013076;28;19940;-80